Time;durP1;ratioP1;P1;durP2;ratioP2;P2;SDS_P1;SDS_P2;PMS_P1;PMS_P2;Temp;Humidity;BMP_temperature;BMP_pressure;BME280_temperature;BME280_humidity;BME280_pressure;Samples;Min_cycle;Max_cycle;Signal;HPM_P1;HPM_P2
2021/12/20 00:01:37;;;;;;;6.93;1.87;;;4.60;99.90;;;;;;5032510;28;20176;-66
2021/12/20 00:04:02;;;;;;;4.77;1.50;;;4.50;99.90;;;;;;5034242;28;20169;-66
2021/12/20 00:06:28;;;;;;;10.33;1.73;;;4.50;99.90;;;;;;5033899;28;20242;-67
2021/12/20 00:08:54;;;;;;;6.67;1.80;;;4.50;99.90;;;;;;5033605;28;20623;-65
2021/12/20 00:11:19;;;;;;;3.50;1.63;;;4.40;99.90;;;;;;5032537;28;20172;-66
2021/12/20 00:13:45;;;;;;;5.10;1.97;;;4.40;99.90;;;;;;5033836;28;20214;-66
2021/12/20 00:16:11;;;;;;;11.20;1.87;;;4.30;99.90;;;;;;5034798;28;20192;-67
2021/12/20 00:18:37;;;;;;;6.07;1.80;;;4.40;99.90;;;;;;5033970;28;20242;-65
2021/12/20 00:21:02;;;;;;;7.70;1.70;;;4.30;99.90;;;;;;5033627;28;20162;-65
2021/12/20 00:23:28;;;;;;;4.97;1.80;;;4.30;99.90;;;;;;5034171;28;20249;-67
2021/12/20 00:25:54;;;;;;;5.70;1.50;;;4.30;99.90;;;;;;5034524;28;20487;-67
2021/12/20 00:28:20;;;;;;;6.50;1.90;;;4.20;99.90;;;;;;5033723;28;20572;-66
2021/12/20 00:30:46;;;;;;;5.50;2.20;;;4.30;99.90;;;;;;5033404;28;20154;-68
2021/12/20 00:33:12;;;;;;;3.60;1.70;;;4.30;99.90;;;;;;5065438;28;20236;-67
2021/12/20 00:35:38;;;;;;;5.47;1.80;;;4.30;99.90;;;;;;5033959;28;20467;-65
2021/12/20 00:40:48;;;;;;;6.50;2.03;;;4.20;99.90;;;;;;5033520;28;20622;-66
2021/12/20 00:43:15;;;;;;;5.37;1.57;;;4.10;99.90;;;;;;5033355;28;20263;-66
2021/12/20 00:45:40;;;;;;;7.57;2.30;;;4.10;99.90;;;;;;5033779;28;20646;-66
2021/12/20 00:48:07;;;;;;;9.47;2.17;;;4.00;99.90;;;;;;5033724;28;20250;-67
2021/12/20 00:50:33;;;;;;;9.33;1.93;;;4.00;99.90;;;;;;5036104;28;20166;-66
2021/12/20 00:52:59;;;;;;;8.13;1.80;;;4.00;99.90;;;;;;5037153;28;20174;-67
2021/12/20 00:55:26;;;;;;;5.10;1.73;;;4.00;99.90;;;;;;5037883;28;20178;-66
2021/12/20 00:57:53;;;;;;;7.17;1.90;;;4.00;99.90;;;;;;5037429;28;20204;-66
2021/12/20 01:00:31;;;;;;;4.67;1.73;;;3.80;99.90;;;;;;5037727;28;20258;-67
2021/12/20 01:02:57;;;;;;;4.67;1.90;;;3.80;99.90;;;;;;5037569;28;20175;-66
2021/12/20 01:05:24;;;;;;;5.27;1.97;;;3.80;99.90;;;;;;5038512;28;20168;-66
2021/12/20 01:07:50;;;;;;;9.43;2.30;;;3.80;99.90;;;;;;5038278;28;20209;-66
2021/12/20 01:10:16;;;;;;;5.73;1.70;;;3.70;99.90;;;;;;5035919;28;20614;-67
2021/12/20 01:12:48;;;;;;;7.33;1.50;;;3.70;99.90;;;;;;5037685;28;20458;-69
2021/12/20 01:15:33;;;;;;;3.77;1.67;;;3.80;99.90;;;;;;5045394;28;20177;-68
2021/12/20 01:18:00;;;;;;;4.43;1.77;;;3.70;99.90;;;;;;5047176;28;20155;-68
2021/12/20 01:20:26;;;;;;;7.73;2.03;;;3.70;99.90;;;;;;5044202;28;20256;-67
2021/12/20 01:22:53;;;;;;;4.57;1.70;;;3.60;99.90;;;;;;5043217;28;20168;-66
2021/12/20 01:25:20;;;;;;;3.67;1.50;;;3.60;99.90;;;;;;5038951;28;20642;-66
2021/12/20 01:27:45;;;;;;;4.03;2.03;;;3.60;99.90;;;;;;5050495;28;20168;-68
2021/12/20 01:30:13;;;;;;;7.33;1.80;;;3.50;99.90;;;;;;5050096;28;20162;-67
2021/12/20 01:32:40;;;;;;;3.37;1.60;;;3.50;99.90;;;;;;5049240;28;20181;-67
2021/12/20 01:35:07;;;;;;;3.97;1.73;;;3.40;99.90;;;;;;5048615;28;20197;-69
2021/12/20 01:37:33;;;;;;;5.53;1.90;;;3.50;99.90;;;;;;5049993;28;20162;-70
2021/12/20 01:39:59;;;;;;;4.40;1.90;;;3.50;99.90;;;;;;5049181;28;20161;-69
2021/12/20 01:42:31;;;;;;;2.53;2.13;;;3.50;99.90;;;;;;5043491;28;20188;-67
2021/12/20 01:44:58;;;;;;;3.23;1.53;;;3.40;99.90;;;;;;5051689;28;20161;-67
2021/12/20 01:47:28;;;;;;;2.50;1.40;;;3.40;99.90;;;;;;5052676;28;20168;-66
2021/12/20 01:50:07;;;;;;;3.13;1.20;;;3.40;99.90;;;;;;5049628;28;20161;-66
2021/12/20 01:52:41;;;;;;;1.87;1.10;;;3.30;99.90;;;;;;5037503;28;20153;-66
2021/12/20 01:55:09;;;;;;;5.00;1.67;;;3.30;99.90;;;;;;5037084;28;20201;-67
2021/12/20 01:57:35;;;;;;;4.03;1.50;;;3.20;99.90;;;;;;5036883;28;20511;-66
2021/12/20 02:00:04;;;;;;;4.60;1.40;;;3.30;99.90;;;;;;5036445;28;20165;-66
2021/12/20 02:02:29;;;;;;;2.47;1.40;;;3.30;99.90;;;;;;5034860;28;20157;-68
2021/12/20 02:05:04;;;;;;;3.03;1.23;;;3.20;99.90;;;;;;5036263;28;20168;-65
2021/12/20 02:07:37;;;;;;;2.50;1.13;;;3.20;99.90;;;;;;5035971;28;20168;-66
2021/12/20 02:10:04;;;;;;;3.43;1.23;;;3.10;99.90;;;;;;5035921;28;20157;-65
2021/12/20 02:12:29;;;;;;;1.50;0.93;;;3.10;99.90;;;;;;5037373;28;20180;-66
2021/12/20 02:14:55;;;;;;;3.33;1.50;;;3.00;99.90;;;;;;5037843;28;20524;-65
2021/12/20 02:17:21;;;;;;;3.90;1.37;;;3.00;99.90;;;;;;5038117;28;20606;-67
2021/12/20 02:19:47;;;;;;;2.47;1.20;;;3.00;99.90;;;;;;5036900;28;20594;-66
2021/12/20 02:22:12;;;;;;;2.13;1.20;;;3.00;99.90;;;;;;5036945;28;20189;-68
2021/12/20 02:24:38;;;;;;;2.77;1.13;;;3.00;99.90;;;;;;5037974;28;20175;-67
2021/12/20 02:27:03;;;;;;;6.87;1.37;;;3.00;99.90;;;;;;5037690;28;20644;-68
2021/12/20 02:29:43;;;;;;;5.53;1.10;;;2.90;99.90;;;;;;5037936;28;20171;-67
2021/12/20 02:37:38;;;;;;;4.27;1.40;;;2.70;99.90;;;;;;5036074;28;20240;-68
2021/12/20 02:40:04;;;;;;;4.43;1.40;;;2.80;99.90;;;;;;5035596;28;20332;-67
2021/12/20 02:42:41;;;;;;;4.97;1.50;;;2.80;99.90;;;;;;5035167;28;20158;-68
2021/12/20 02:45:14;;;;;;;3.53;1.53;;;2.70;99.90;;;;;;5034920;28;20268;-68
2021/12/20 02:47:42;;;;;;;2.40;1.23;;;2.70;99.90;;;;;;5035030;28;20197;-67
2021/12/20 02:50:10;;;;;;;4.43;1.33;;;2.60;99.90;;;;;;5035011;28;20235;-68
2021/12/20 02:52:36;;;;;;;3.73;1.33;;;2.70;99.90;;;;;;5035228;28;20187;-66
2021/12/20 02:55:02;;;;;;;3.13;1.57;;;2.70;99.90;;;;;;5034764;28;20200;-66
2021/12/20 02:57:28;;;;;;;3.53;1.63;;;2.70;99.90;;;;;;5035267;28;20169;-68
2021/12/20 02:59:54;;;;;;;5.00;1.53;;;2.60;99.90;;;;;;5034992;28;20229;-66
2021/12/20 03:02:21;;;;;;;4.50;1.73;;;2.70;99.90;;;;;;5035099;28;20176;-67
2021/12/20 03:04:47;;;;;;;5.40;1.50;;;2.60;99.90;;;;;;5035295;28;20157;-66
2021/12/20 03:07:19;;;;;;;4.63;1.60;;;2.60;99.90;;;;;;5035366;28;20651;-68
2021/12/20 03:09:50;;;;;;;5.20;1.50;;;2.60;99.90;;;;;;5037331;28;20168;-66
2021/12/20 03:12:16;;;;;;;8.50;1.90;;;2.60;99.90;;;;;;5034803;28;20168;-66
2021/12/20 03:14:46;;;;;;;5.33;1.73;;;2.70;99.90;;;;;;5033973;28;20204;-67
2021/12/20 03:17:12;;;;;;;9.97;2.60;;;2.50;99.90;;;;;;5035554;28;20505;-66
2021/12/20 03:19:38;;;;;;;3.27;1.20;;;2.50;99.90;;;;;;5046346;28;20162;-67
2021/12/20 03:22:05;;;;;;;4.03;2.00;;;2.50;99.90;;;;;;5042833;28;20161;-67
2021/12/20 03:24:31;;;;;;;3.07;1.90;;;2.50;99.90;;;;;;5041960;28;20167;-67
2021/12/20 03:26:56;;;;;;;9.00;1.57;;;2.50;99.90;;;;;;5035947;28;20661;-68
2021/12/20 03:29:22;;;;;;;5.07;1.37;;;2.50;99.90;;;;;;5037167;28;20223;-68
2021/12/20 03:31:48;;;;;;;3.23;1.70;;;2.40;99.90;;;;;;5037520;28;20224;-66
2021/12/20 03:34:15;;;;;;;4.33;1.37;;;2.50;99.90;;;;;;5036105;28;20240;-69
2021/12/20 03:36:42;;;;;;;4.00;1.40;;;2.40;99.90;;;;;;5038407;28;20173;-67
2021/12/20 03:39:08;;;;;;;7.00;1.60;;;2.40;99.90;;;;;;5042203;28;20457;-67
2021/12/20 03:41:36;;;;;;;5.53;1.80;;;2.50;99.90;;;;;;5042372;28;20231;-66
2021/12/20 03:44:02;;;;;;;2.87;1.57;;;2.40;99.90;;;;;;5041258;28;20176;-66
2021/12/20 03:46:28;;;;;;;3.43;1.80;;;2.30;99.90;;;;;;5044729;28;20225;-69
2021/12/20 03:48:53;;;;;;;4.30;1.73;;;2.30;99.90;;;;;;5041715;28;20205;-66
2021/12/20 03:51:19;;;;;;;4.63;1.80;;;2.20;99.90;;;;;;5033988;28;20188;-68
2021/12/20 03:53:45;;;;;;;4.07;1.53;;;2.20;99.90;;;;;;5034022;28;20192;-66
2021/12/20 03:56:11;;;;;;;7.47;1.60;;;2.30;99.90;;;;;;5034600;28;20199;-67
2021/12/20 03:58:37;;;;;;;2.87;1.60;;;2.30;99.90;;;;;;5034054;28;20166;-66
2021/12/20 04:01:06;;;;;;;5.73;1.83;;;2.30;99.90;;;;;;5033903;28;20161;-66
2021/12/20 04:03:34;;;;;;;9.47;1.80;;;2.30;99.90;;;;;;5034223;28;20172;-66
2021/12/20 04:06:02;;;;;;;6.30;1.80;;;2.20;99.90;;;;;;5033673;28;20157;-68
2021/12/20 04:08:28;;;;;;;4.57;1.50;;;2.20;99.90;;;;;;5033909;28;20172;-68
2021/12/20 04:10:54;;;;;;;4.40;1.60;;;2.20;99.90;;;;;;5033738;28;20520;-65
2021/12/20 04:13:19;;;;;;;4.97;1.63;;;2.30;99.90;;;;;;5033762;28;20204;-68
2021/12/20 04:15:45;;;;;;;5.10;1.53;;;2.30;99.90;;;;;;5033792;28;20656;-67
2021/12/20 04:18:11;;;;;;;3.27;1.40;;;2.30;99.90;;;;;;5033929;28;20654;-66
2021/12/20 04:20:37;;;;;;;2.90;1.60;;;2.20;99.90;;;;;;5034082;28;20165;-66
2021/12/20 04:23:02;;;;;;;1.40;1.10;;;2.10;99.90;;;;;;5033811;28;20215;-68
2021/12/20 04:25:28;;;;;;;3.53;1.60;;;2.20;99.90;;;;;;5033067;28;20211;-66
2021/12/20 04:27:54;;;;;;;10.27;1.40;;;2.20;99.90;;;;;;5033961;28;20235;-66
2021/12/20 04:30:19;;;;;;;4.47;1.70;;;2.10;99.90;;;;;;5032124;28;20239;-66
2021/12/20 04:32:46;;;;;;;4.50;2.13;;;2.10;99.90;;;;;;5033765;28;20196;-67
2021/12/20 04:35:15;;;;;;;10.47;4.43;;;2.00;99.90;;;;;;5035303;28;20209;-67
2021/12/20 04:37:44;;;;;;;4.37;1.57;;;2.10;99.90;;;;;;5034888;28;20233;-68
2021/12/20 04:40:15;;;;;;;5.93;2.50;;;2.00;99.90;;;;;;5034110;28;20169;-68
2021/12/20 04:42:40;;;;;;;5.50;1.90;;;2.10;99.90;;;;;;5033905;28;20153;-67
2021/12/20 04:45:07;;;;;;;3.83;1.40;;;2.20;99.90;;;;;;5035823;28;20547;-66
2021/12/20 04:47:32;;;;;;;3.80;1.40;;;2.10;99.90;;;;;;5033617;28;20556;-66
2021/12/20 04:49:59;;;;;;;3.37;1.33;;;2.00;99.90;;;;;;5033182;28;20165;-67
2021/12/20 04:52:25;;;;;;;4.30;1.63;;;2.00;99.90;;;;;;5033176;28;20613;-65
2021/12/20 04:54:51;;;;;;;4.50;1.67;;;2.10;99.90;;;;;;5033013;28;20632;-66
2021/12/20 04:57:17;;;;;;;3.97;1.57;;;2.00;99.90;;;;;;5032995;28;20161;-65
2021/12/20 04:59:43;;;;;;;2.10;1.37;;;2.00;99.90;;;;;;5065211;28;20200;-65
2021/12/20 05:02:09;;;;;;;6.50;2.23;;;2.00;99.90;;;;;;5032903;28;20165;-66
2021/12/20 05:04:34;;;;;;;5.83;2.23;;;1.90;99.90;;;;;;5032225;28;20193;-66
2021/12/20 05:07:00;;;;;;;2.30;1.40;;;1.90;99.90;;;;;;5032442;28;20200;-66
2021/12/20 05:09:28;;;;;;;4.53;1.60;;;1.90;99.90;;;;;;5033276;28;20252;-66
2021/12/20 05:12:09;;;;;;;9.10;1.90;;;2.10;99.90;;;;;;5032939;28;20575;-66
2021/12/20 05:14:34;;;;;;;3.57;1.60;;;2.00;99.90;;;;;;5032778;28;20238;-67
2021/12/20 05:17:00;;;;;;;3.30;1.43;;;1.90;99.90;;;;;;5032937;28;20219;-66
2021/12/20 05:19:26;;;;;;;1.63;1.20;;;1.90;99.90;;;;;;5033434;28;20175;-66
2021/12/20 05:21:51;;;;;;;2.33;1.30;;;1.90;99.90;;;;;;5032650;28;20232;-66
2021/12/20 05:24:17;;;;;;;5.10;2.03;;;2.00;99.90;;;;;;5032914;28;20161;-68
2021/12/20 05:26:42;;;;;;;4.30;1.47;;;2.00;99.90;;;;;;5033269;28;20542;-66
2021/12/20 05:29:08;;;;;;;2.70;1.10;;;1.90;99.90;;;;;;5032017;28;20172;-66
2021/12/20 05:31:34;;;;;;;4.80;1.30;;;1.90;99.90;;;;;;5032719;28;20180;-66
2021/12/20 05:34:00;;;;;;;5.57;1.60;;;2.00;99.90;;;;;;5032467;28;20237;-66
2021/12/20 05:36:26;;;;;;;2.87;1.47;;;2.00;99.90;;;;;;5033411;28;20488;-66
2021/12/20 05:38:52;;;;;;;8.73;2.07;;;1.90;99.90;;;;;;5036327;28;20173;-66
2021/12/20 05:41:17;;;;;;;4.67;1.90;;;2.00;99.90;;;;;;5036326;28;20185;-67
2021/12/20 05:43:43;;;;;;;5.03;1.87;;;2.00;99.90;;;;;;5036095;28;20594;-66
2021/12/20 05:46:08;;;;;;;4.47;1.67;;;1.90;99.90;;;;;;5036494;28;20193;-65
2021/12/20 05:48:34;;;;;;;4.30;1.63;;;1.90;99.90;;;;;;5036478;28;20197;-65
2021/12/20 05:51:00;;;;;;;5.63;1.63;;;1.90;99.90;;;;;;5036590;28;20496;-66
2021/12/20 05:53:25;;;;;;;2.53;1.47;;;1.90;99.90;;;;;;5034739;28;20260;-66
2021/12/20 05:55:51;;;;;;;4.63;1.93;;;1.90;99.90;;;;;;5068093;28;20172;-66
2021/12/20 05:58:17;;;;;;;4.50;1.43;;;1.90;99.90;;;;;;5036673;28;20200;-65
2021/12/20 06:00:42;;;;;;;3.37;1.70;;;2.00;99.90;;;;;;5035966;28;20162;-66
2021/12/20 06:03:10;;;;;;;9.20;3.27;;;1.90;99.90;;;;;;5038166;28;20157;-68
2021/12/20 06:05:38;;;;;;;7.97;1.90;;;1.80;99.90;;;;;;5036002;28;20244;-65
2021/12/20 06:08:04;;;;;;;3.93;1.73;;;1.80;99.90;;;;;;5036203;28;20215;-65
2021/12/20 06:10:29;;;;;;;7.90;1.80;;;1.80;99.90;;;;;;5037025;28;20609;-66
2021/12/20 06:12:55;;;;;;;3.53;1.57;;;1.80;99.90;;;;;;5037669;28;20157;-66
2021/12/20 06:15:20;;;;;;;4.07;1.77;;;1.70;99.90;;;;;;5038031;28;20203;-67
2021/12/20 06:17:46;;;;;;;5.50;1.70;;;1.70;99.90;;;;;;5038555;28;20166;-68
2021/12/20 06:20:13;;;;;;;2.17;1.53;;;1.70;99.90;;;;;;5038965;28;20164;-66
2021/12/20 06:22:39;;;;;;;5.87;1.80;;;1.70;99.90;;;;;;5039354;28;20597;-66
2021/12/20 06:25:05;;;;;;;5.50;1.80;;;1.70;99.90;;;;;;5036812;28;20175;-66
2021/12/20 06:27:31;;;;;;;7.77;1.87;;;1.70;99.90;;;;;;5035632;28;20169;-68
2021/12/20 06:29:57;;;;;;;4.70;1.80;;;1.80;99.90;;;;;;5035530;28;20176;-67
2021/12/20 06:32:22;;;;;;;3.67;2.17;;;1.70;99.90;;;;;;5035676;28;20173;-65
2021/12/20 06:34:48;;;;;;;2.97;1.60;;;1.70;99.90;;;;;;5035721;28;20267;-65
2021/12/20 06:37:14;;;;;;;5.93;2.00;;;1.70;99.90;;;;;;5035486;28;20672;-65
2021/12/20 06:39:40;;;;;;;3.27;2.10;;;1.80;99.90;;;;;;5036132;28;20252;-66
2021/12/20 06:42:06;;;;;;;6.77;1.97;;;1.70;99.90;;;;;;5035731;28;20272;-66
2021/12/20 06:44:32;;;;;;;6.10;2.37;;;1.70;99.90;;;;;;5035681;28;20160;-65
2021/12/20 06:46:58;;;;;;;5.10;2.10;;;1.70;99.90;;;;;;5035062;28;20168;-66
2021/12/20 06:49:25;;;;;;;6.53;1.60;;;1.70;99.90;;;;;;5035104;28;20165;-65
2021/12/20 06:51:52;;;;;;;5.33;2.20;;;1.70;99.90;;;;;;5035338;28;20169;-65
2021/12/20 06:54:19;;;;;;;6.40;2.40;;;1.60;99.90;;;;;;5034826;28;20311;-66
2021/12/20 06:56:45;;;;;;;8.63;2.40;;;1.60;99.90;;;;;;5035059;28;20168;-66
2021/12/20 06:59:11;;;;;;;5.17;1.93;;;1.60;99.90;;;;;;5035337;28;20165;-66
2021/12/20 07:01:37;;;;;;;12.23;2.00;;;1.60;99.90;;;;;;5067579;28;20258;-66
2021/12/20 07:04:03;;;;;;;3.63;2.10;;;1.60;99.90;;;;;;5034783;28;20590;-65
2021/12/20 07:06:29;;;;;;;5.23;2.07;;;1.60;99.90;;;;;;5035083;28;20173;-66
2021/12/20 07:08:55;;;;;;;6.70;2.40;;;1.60;99.90;;;;;;5035283;28;20153;-66
2021/12/20 07:11:22;;;;;;;9.27;2.00;;;1.60;99.90;;;;;;5034862;28;20580;-65
2021/12/20 07:13:48;;;;;;;4.53;1.80;;;1.60;99.90;;;;;;5034443;28;20628;-66
2021/12/20 07:16:14;;;;;;;3.50;1.70;;;1.50;99.90;;;;;;5034773;28;20239;-66
2021/12/20 07:18:40;;;;;;;5.43;2.23;;;1.60;99.90;;;;;;5035735;28;20240;-66
2021/12/20 07:21:06;;;;;;;5.40;2.03;;;1.80;99.90;;;;;;5034880;28;20161;-66
2021/12/20 07:23:34;;;;;;;2.83;1.67;;;1.70;99.90;;;;;;5034596;28;20165;-68
2021/12/20 07:26:00;;;;;;;4.70;2.23;;;1.70;99.90;;;;;;5034616;28;20239;-67
2021/12/20 07:28:25;;;;;;;7.10;2.00;;;1.70;99.90;;;;;;5035079;28;20169;-68
2021/12/20 07:30:51;;;;;;;6.23;2.30;;;1.70;99.90;;;;;;5034921;28;20250;-66
2021/12/20 07:33:17;;;;;;;6.63;2.57;;;1.70;99.90;;;;;;5034206;28;20255;-66
2021/12/20 07:35:44;;;;;;;4.47;1.97;;;1.60;99.90;;;;;;5034678;28;20172;-66
2021/12/20 07:38:14;;;;;;;7.37;2.10;;;1.60;99.90;;;;;;5033619;28;20177;-66
2021/12/20 07:40:45;;;;;;;7.60;2.57;;;1.70;99.90;;;;;;5034152;28;20223;-66
2021/12/20 07:43:14;;;;;;;8.00;3.23;;;1.70;99.90;;;;;;5034287;28;20172;-66
2021/12/20 07:45:41;;;;;;;6.27;2.63;;;1.70;99.90;;;;;;5034560;28;20161;-65
2021/12/20 07:48:07;;;;;;;7.97;2.90;;;1.70;99.90;;;;;;5034254;28;20168;-65
2021/12/20 07:50:33;;;;;;;4.43;1.83;;;1.70;99.90;;;;;;5033664;28;20165;-66
2021/12/20 07:53:00;;;;;;;9.93;2.13;;;1.70;99.90;;;;;;5033914;28;20166;-65
2021/12/20 07:55:26;;;;;;;6.03;2.90;;;1.70;99.90;;;;;;5033255;28;20613;-66
2021/12/20 07:57:52;;;;;;;5.47;1.83;;;1.70;99.90;;;;;;5033815;28;20161;-65
2021/12/20 08:00:18;;;;;;;5.43;2.33;;;1.80;99.90;;;;;;5032469;28;20235;-66
2021/12/20 08:02:44;;;;;;;6.03;2.00;;;1.80;99.90;;;;;;5033828;28;20161;-66
2021/12/20 08:05:14;;;;;;;9.07;2.43;;;1.80;99.90;;;;;;5034183;28;20320;-67
2021/12/20 08:07:40;;;;;;;5.97;1.90;;;1.80;99.90;;;;;;5033906;28;20215;-65
2021/12/20 08:10:07;;;;;;;7.43;2.23;;;1.80;99.90;;;;;;5033568;28;20153;-67
2021/12/20 08:12:33;;;;;;;7.10;2.80;;;1.80;99.90;;;;;;5033693;28;20173;-66
2021/12/20 08:14:58;;;;;;;9.47;3.87;;;1.90;99.90;;;;;;5033710;28;20192;-67
2021/12/20 08:17:24;;;;;;;5.20;2.57;;;2.10;99.90;;;;;;5033692;28;20165;-66
2021/12/20 08:19:50;;;;;;;7.23;2.37;;;2.00;99.90;;;;;;5033819;28;20231;-65
2021/12/20 08:22:15;;;;;;;5.90;2.53;;;2.00;99.90;;;;;;5033551;28;20168;-67
2021/12/20 08:24:41;;;;;;;6.57;2.50;;;2.00;99.90;;;;;;5033475;28;20519;-68
2021/12/20 08:27:07;;;;;;;4.97;2.50;;;2.10;99.90;;;;;;5033395;28;20165;-66
2021/12/20 08:29:33;;;;;;;9.40;3.33;;;2.20;99.90;;;;;;5033876;28;20165;-66
2021/12/20 08:32:01;;;;;;;6.07;2.70;;;2.10;99.90;;;;;;5033430;28;20175;-68
2021/12/20 08:34:28;;;;;;;7.77;2.40;;;2.20;99.90;;;;;;5033239;28;20313;-67
2021/12/20 08:36:55;;;;;;;10.53;3.20;;;2.20;99.90;;;;;;5065575;28;20177;-67
2021/12/20 08:39:21;;;;;;;10.43;3.37;;;2.20;99.90;;;;;;5033766;28;20201;-65
2021/12/20 08:41:46;;;;;;;6.27;2.53;;;2.10;99.90;;;;;;5032680;28;20226;-68
2021/12/20 08:44:13;;;;;;;8.40;2.90;;;2.30;99.90;;;;;;5033461;28;20187;-67
2021/12/20 08:46:39;;;;;;;5.47;2.70;;;2.30;99.90;;;;;;5033520;28;20257;-66
2021/12/20 08:49:05;;;;;;;5.07;2.37;;;2.30;99.90;;;;;;5033010;28;20173;-66
2021/12/20 08:51:30;;;;;;;7.23;2.80;;;2.20;99.90;;;;;;5032986;28;20165;-66
2021/12/20 08:53:56;;;;;;;5.37;2.83;;;2.30;99.90;;;;;;5032807;28;20208;-66
2021/12/20 08:56:22;;;;;;;11.67;3.20;;;2.40;99.90;;;;;;5035594;28;20172;-67
2021/12/20 08:58:48;;;;;;;11.77;3.63;;;2.40;99.90;;;;;;5033466;28;20244;-65
2021/12/20 09:01:14;;;;;;;11.53;3.07;;;2.40;99.90;;;;;;5033074;28;20241;-66
2021/12/20 09:03:40;;;;;;;6.13;2.30;;;2.40;99.90;;;;;;5033113;28;20181;-66
2021/12/20 09:06:08;;;;;;;12.70;2.87;;;2.50;99.90;;;;;;5032885;28;20168;-65
2021/12/20 09:08:34;;;;;;;7.47;2.73;;;2.50;99.90;;;;;;5032946;28;20248;-66
2021/12/20 09:11:00;;;;;;;3.97;2.63;;;2.50;99.90;;;;;;5034732;28;20161;-65
2021/12/20 09:13:26;;;;;;;5.87;2.40;;;2.50;99.90;;;;;;5036357;28;20244;-64
2021/12/20 09:15:52;;;;;;;6.87;2.70;;;2.40;99.90;;;;;;5036463;28;20161;-66
2021/12/20 09:18:18;;;;;;;5.83;2.40;;;2.50;99.90;;;;;;5036614;28;20681;-66
2021/12/20 09:20:44;;;;;;;6.57;2.70;;;2.60;99.90;;;;;;5036547;28;20244;-65
2021/12/20 09:23:12;;;;;;;8.43;2.97;;;2.50;99.90;;;;;;5036216;28;20256;-67
2021/12/20 09:25:41;;;;;;;7.27;2.80;;;2.60;99.90;;;;;;5036300;28;20169;-67
2021/12/20 09:28:10;;;;;;;11.83;3.13;;;2.60;99.90;;;;;;5036810;28;20161;-66
2021/12/20 09:30:36;;;;;;;11.97;3.03;;;2.70;99.90;;;;;;5036266;28;20188;-70
2021/12/20 09:33:04;;;;;;;6.40;3.00;;;2.60;99.90;;;;;;5036631;28;20679;-67
2021/12/20 09:35:30;;;;;;;6.70;2.87;;;2.60;99.90;;;;;;5038123;28;20208;-65
2021/12/20 09:37:56;;;;;;;8.53;3.70;;;2.60;99.90;;;;;;5035928;28;20261;-65
2021/12/20 09:40:32;;;;;;;7.40;3.70;;;2.60;99.90;;;;;;5035991;28;20197;-65
2021/12/20 09:43:01;;;;;;;8.87;3.23;;;2.60;99.90;;;;;;5036032;28;20157;-66
2021/12/20 09:45:27;;;;;;;10.40;3.07;;;2.50;99.90;;;;;;5036172;28;20161;-67
2021/12/20 09:47:52;;;;;;;7.23;2.60;;;2.70;99.90;;;;;;5035689;28;20172;-67
2021/12/20 09:50:18;;;;;;;6.53;2.60;;;2.60;99.90;;;;;;5036059;28;20169;-66
2021/12/20 09:52:45;;;;;;;5.93;2.93;;;2.70;99.90;;;;;;5036011;28;20171;-66
2021/12/20 09:55:14;;;;;;;4.90;3.00;;;2.80;99.90;;;;;;5035991;28;20196;-65
2021/12/20 09:57:41;;;;;;;11.10;4.87;;;2.70;99.90;;;;;;5035776;28;20169;-66
2021/12/20 10:00:10;;;;;;;9.07;3.30;;;2.80;99.90;;;;;;5035879;28;20628;-65
2021/12/20 10:02:36;;;;;;;6.27;3.00;;;2.90;99.90;;;;;;5036039;28;20173;-65
2021/12/20 10:05:01;;;;;;;6.70;2.37;;;3.00;99.90;;;;;;5035592;28;20187;-67
2021/12/20 10:07:29;;;;;;;9.93;3.83;;;2.90;99.90;;;;;;5036373;28;20208;-68
2021/12/20 10:09:55;;;;;;;9.67;3.57;;;2.90;99.90;;;;;;5035672;28;20240;-65
2021/12/20 10:12:26;;;;;;;8.10;3.70;;;2.90;99.90;;;;;;5035684;28;20248;-64
2021/12/20 10:15:04;;;;;;;20.67;3.70;;;2.90;99.90;;;;;;5035885;28;20617;-65
2021/12/20 10:17:50;;;;;;;5.03;2.60;;;2.90;99.90;;;;;;5035960;28;20157;-65
2021/12/20 10:20:26;;;;;;;11.33;2.87;;;3.00;99.90;;;;;;5036678;28;20169;-65
2021/12/20 10:22:53;;;;;;;7.50;3.00;;;3.00;99.90;;;;;;5036682;28;20168;-64
2021/12/20 10:25:30;;;;;;;3.63;2.40;;;3.00;99.90;;;;;;5035752;28;20238;-65
2021/12/20 10:28:14;;;;;;;10.73;2.80;;;3.10;99.90;;;;;;5035366;28;20157;-65
2021/12/20 10:30:45;;;;;;;7.23;2.30;;;3.10;99.90;;;;;;5035850;28;20161;-67
2021/12/20 10:33:20;;;;;;;5.60;2.40;;;3.00;99.90;;;;;;5035875;28;20220;-64
2021/12/20 10:35:53;;;;;;;7.53;3.13;;;3.00;99.90;;;;;;5035203;28;20226;-66
2021/12/20 10:38:31;;;;;;;7.43;2.60;;;3.10;99.90;;;;;;5035151;28;20657;-65
2021/12/20 10:41:02;;;;;;;8.57;2.80;;;3.20;99.90;;;;;;5034876;28;20168;-66
2021/12/20 10:43:35;;;;;;;6.13;2.73;;;3.10;99.90;;;;;;5067201;28;20188;-65
2021/12/20 10:46:22;;;;;;;9.70;2.50;;;3.20;99.90;;;;;;5035273;28;20157;-65
2021/12/20 10:48:57;;;;;;;8.43;2.40;;;3.20;99.90;;;;;;5034802;28;20254;-66
2021/12/20 10:51:48;;;;;;;8.00;2.57;;;3.30;99.90;;;;;;5035525;28;20156;-65
2021/12/20 10:54:18;;;;;;;3.77;2.30;;;3.30;99.90;;;;;;5037306;28;20193;-65
2021/12/20 10:57:02;;;;;;;13.73;3.13;;;3.20;99.90;;;;;;5043043;28;20309;-65
2021/12/20 10:59:35;;;;;;;7.83;2.57;;;3.30;99.90;;;;;;5041557;28;20161;-68
2021/12/20 11:04:46;;;;;;;8.20;2.90;;;3.30;99.90;;;;;;5035302;28;20176;-64
2021/12/20 11:09:54;;;;;;;9.63;3.20;;;3.30;99.90;;;;;;5034830;28;20169;-65
2021/12/20 11:12:24;;;;;;;3.00;2.40;;;3.40;99.90;;;;;;5034688;28;20163;-66
2021/12/20 11:14:52;;;;;;;10.77;3.07;;;3.30;99.90;;;;;;5034416;28;20239;-63
2021/12/20 11:17:21;;;;;;;7.37;2.70;;;3.30;99.90;;;;;;5034261;28;20169;-64
2021/12/20 11:19:51;;;;;;;7.83;3.60;;;3.50;99.90;;;;;;5034154;28;20157;-65
2021/12/20 11:22:24;;;;;;;8.87;2.50;;;3.40;99.90;;;;;;5034822;28;20196;-65
2021/12/20 11:24:55;;;;;;;6.63;2.43;;;3.40;99.90;;;;;;5034345;28;20509;-65
2021/12/20 11:27:26;;;;;;;8.80;3.03;;;3.60;99.90;;;;;;5033955;28;20161;-65
2021/12/20 11:29:54;;;;;;;9.90;3.13;;;3.50;99.90;;;;;;5033314;28;20514;-64
2021/12/20 11:32:22;;;;;;;11.03;2.80;;;3.60;99.90;;;;;;5033989;28;20157;-65
2021/12/20 11:34:48;;;;;;;5.17;3.03;;;3.70;99.90;;;;;;5033460;28;20252;-65
2021/12/20 11:37:16;;;;;;;7.57;2.63;;;3.50;99.90;;;;;;5034339;28;20168;-66
2021/12/20 11:39:43;;;;;;;5.33;2.07;;;3.50;99.90;;;;;;5034167;28;20176;-63
2021/12/20 11:42:09;;;;;;;5.07;2.23;;;3.60;99.90;;;;;;5034051;28;20165;-63
2021/12/20 11:44:37;;;;;;;5.40;2.00;;;3.50;99.90;;;;;;5033751;28;20165;-65
2021/12/20 11:47:08;;;;;;;8.77;2.40;;;3.50;99.90;;;;;;5033483;28;20168;-65
2021/12/20 11:49:36;;;;;;;7.73;2.80;;;3.50;99.90;;;;;;5033613;28;20177;-65
2021/12/20 11:52:17;;;;;;;7.50;2.70;;;3.40;99.90;;;;;;5032899;28;20165;-65
2021/12/20 11:54:50;;;;;;;7.37;2.87;;;3.50;99.90;;;;;;5033442;28;20196;-64
2021/12/20 11:57:32;;;;;;;4.73;2.33;;;3.60;99.90;;;;;;5033853;28;20612;-64
2021/12/20 12:00:00;;;;;;;7.67;3.03;;;3.80;99.90;;;;;;5033427;28;20240;-65
2021/12/20 12:02:32;;;;;;;8.83;2.40;;;3.60;99.90;;;;;;5033477;28;20652;-67
2021/12/20 12:05:02;;;;;;;9.03;3.03;;;3.80;99.90;;;;;;5033599;28;20169;-69
2021/12/20 12:07:30;;;;;;;9.57;3.17;;;3.80;99.90;;;;;;5033337;28;20627;-66
2021/12/20 12:10:00;;;;;;;12.33;3.20;;;3.70;99.90;;;;;;5031779;28;20182;-63
2021/12/20 12:12:27;;;;;;;9.10;3.30;;;3.70;99.90;;;;;;5034190;28;20647;-67
2021/12/20 12:15:06;;;;;;;5.63;2.53;;;3.80;99.90;;;;;;5033631;28;20196;-66
2021/12/20 12:18:03;;;;;;;6.10;2.37;;;3.80;99.90;;;;;;5033469;28;20193;-65
2021/12/20 12:20:53;;;;;;;4.90;2.57;;;3.70;99.90;;;;;;5028619;28;20579;-64
2021/12/20 12:23:27;;;;;;;9.03;3.57;;;3.80;99.90;;;;;;5033416;28;20168;-66
2021/12/20 12:26:02;;;;;;;7.53;2.73;;;3.70;99.90;;;;;;5033000;28;20176;-65
2021/12/20 12:28:55;;;;;;;3.83;2.13;;;3.70;99.90;;;;;;5033289;28;20686;-66
2021/12/20 12:31:21;;;;;;;4.97;2.40;;;3.70;99.90;;;;;;5033462;28;20549;-66
2021/12/20 12:33:47;;;;;;;12.77;6.07;;;3.80;99.90;;;;;;5033152;28;20366;-70
2021/12/20 12:36:25;;;;;;;5.17;2.40;;;3.70;99.90;;;;;;5033786;28;20617;-66
2021/12/20 12:38:58;;;;;;;6.47;2.37;;;3.70;99.90;;;;;;5033544;28;20161;-65
2021/12/20 12:41:32;;;;;;;7.40;3.07;;;3.80;99.90;;;;;;5033115;28;20160;-64
2021/12/20 12:44:02;;;;;;;7.07;2.30;;;3.80;99.90;;;;;;5033353;28;20196;-66
2021/12/20 12:46:41;;;;;;;7.30;2.23;;;3.80;99.90;;;;;;5033002;28;20227;-64
2021/12/20 12:49:19;;;;;;;5.63;2.80;;;3.80;99.90;;;;;;5033663;28;20154;-66
2021/12/20 12:51:45;;;;;;;6.40;3.13;;;3.80;99.90;;;;;;5033114;28;20169;-64
2021/12/20 12:54:33;;;;;;;4.37;2.33;;;3.80;99.90;;;;;;5034211;28;20193;-65
2021/12/20 12:57:11;;;;;;;10.10;2.50;;;3.80;99.90;;;;;;5032648;28;20531;-66
2021/12/20 12:59:55;;;;;;;105.63;50.27;;;3.80;99.90;;;;;;5033447;28;20624;-65
2021/12/20 13:02:28;;;;;;;16.60;5.97;;;4.10;99.90;;;;;;5032061;28;20602;-65
2021/12/20 13:04:55;;;;;;;9.07;3.80;;;4.10;99.90;;;;;;5032899;28;20161;-63
2021/12/20 13:07:23;;;;;;;10.00;2.83;;;4.10;99.90;;;;;;5033104;28;20526;-65
2021/12/20 13:09:51;;;;;;;7.33;2.70;;;4.10;99.90;;;;;;5033442;28;20196;-63
2021/12/20 13:12:43;;;;;;;4.97;2.67;;;4.10;99.90;;;;;;5033678;28;20169;-63
2021/12/20 13:18:15;;;;;;;4.23;2.10;;;4.10;99.90;;;;;;5037033;28;20582;-64